sensor_id;sensor_type;location;lat;lon;timestamp;P1;durP1;ratioP1;P2;durP2;ratioP2
13408;SDS011;6775;49.574;11.170;2023-07-02T00:00:20;1.40;;;1.30;;
13408;SDS011;6775;49.574;11.170;2023-07-02T00:02:48;2.73;;;1.40;;
13408;SDS011;6775;49.574;11.170;2023-07-02T00:05:16;1.60;;;1.47;;
13408;SDS011;6775;49.574;11.170;2023-07-02T00:07:45;1.70;;;1.30;;
13408;SDS011;6775;49.574;11.170;2023-07-02T00:10:13;1.30;;;1.20;;
13408;SDS011;6775;49.574;11.170;2023-07-02T00:12:42;2.07;;;1.43;;
13408;SDS011;6775;49.574;11.170;2023-07-02T00:15:10;1.43;;;1.33;;
13408;SDS011;6775;49.574;11.170;2023-07-02T00:17:38;1.40;;;1.30;;
13408;SDS011;6775;49.574;11.170;2023-07-02T00:20:07;1.40;;;1.30;;
13408;SDS011;6775;49.574;11.170;2023-07-02T00:22:40;1.60;;;1.50;;
13408;SDS011;6775;49.574;11.170;2023-07-02T00:25:12;1.70;;;1.47;;
13408;SDS011;6775;49.574;11.170;2023-07-02T00:27:40;1.57;;;1.47;;
13408;SDS011;6775;49.574;11.170;2023-07-02T00:30:09;2.03;;;1.40;;
13408;SDS011;6775;49.574;11.170;2023-07-02T00:32:38;1.77;;;1.40;;
13408;SDS011;6775;49.574;11.170;2023-07-02T00:35:06;1.40;;;1.30;;
13408;SDS011;6775;49.574;11.170;2023-07-02T00:37:34;1.47;;;1.37;;
13408;SDS011;6775;49.574;11.170;2023-07-02T00:40:02;2.10;;;1.70;;
13408;SDS011;6775;49.574;11.170;2023-07-02T00:42:30;1.40;;;1.30;;
13408;SDS011;6775;49.574;11.170;2023-07-02T00:44:58;3.20;;;1.50;;
13408;SDS011;6775;49.574;11.170;2023-07-02T00:47:30;1.43;;;1.33;;
13408;SDS011;6775;49.574;11.170;2023-07-02T00:50:01;1.40;;;1.30;;
13408;SDS011;6775;49.574;11.170;2023-07-02T00:52:29;1.80;;;1.70;;
13408;SDS011;6775;49.574;11.170;2023-07-02T00:54:57;1.50;;;1.40;;
13408;SDS011;6775;49.574;11.170;2023-07-02T00:57:25;1.80;;;1.70;;
13408;SDS011;6775;49.574;11.170;2023-07-02T00:59:55;1.70;;;1.60;;
13408;SDS011;6775;49.574;11.170;2023-07-02T01:02:23;2.17;;;1.97;;
13408;SDS011;6775;49.574;11.170;2023-07-02T01:04:57;1.87;;;1.77;;
13408;SDS011;6775;49.574;11.170;2023-07-02T01:07:27;2.43;;;2.23;;
13408;SDS011;6775;49.574;11.170;2023-07-02T01:09:55;1.70;;;1.60;;
13408;SDS011;6775;49.574;11.170;2023-07-02T01:12:23;2.23;;;2.03;;
13408;SDS011;6775;49.574;11.170;2023-07-02T01:14:52;2.20;;;2.00;;
13408;SDS011;6775;49.574;11.170;2023-07-02T01:17:23;2.40;;;2.13;;
13408;SDS011;6775;49.574;11.170;2023-07-02T01:19:55;2.07;;;1.87;;
13408;SDS011;6775;49.574;11.170;2023-07-02T01:22:26;2.40;;;2.20;;
13408;SDS011;6775;49.574;11.170;2023-07-02T01:24:55;2.63;;;2.10;;
13408;SDS011;6775;49.574;11.170;2023-07-02T01:27:23;2.33;;;2.13;;
13408;SDS011;6775;49.574;11.170;2023-07-02T01:29:51;2.60;;;2.40;;
13408;SDS011;6775;49.574;11.170;2023-07-02T01:32:19;2.73;;;2.53;;
13408;SDS011;6775;49.574;11.170;2023-07-02T01:34:48;2.00;;;1.80;;
13408;SDS011;6775;49.574;11.170;2023-07-02T01:37:20;2.40;;;2.20;;
13408;SDS011;6775;49.574;11.170;2023-07-02T01:39:48;2.30;;;2.10;;
13408;SDS011;6775;49.574;11.170;2023-07-02T01:42:17;2.57;;;2.37;;
13408;SDS011;6775;49.574;11.170;2023-07-02T01:44:46;2.13;;;1.93;;
13408;SDS011;6775;49.574;11.170;2023-07-02T01:47:15;2.97;;;2.33;;
13408;SDS011;6775;49.574;11.170;2023-07-02T01:49:45;2.40;;;2.20;;
13408;SDS011;6775;49.574;11.170;2023-07-02T01:52:13;2.57;;;2.10;;
13408;SDS011;6775;49.574;11.170;2023-07-02T01:54:42;2.60;;;2.40;;
13408;SDS011;6775;49.574;11.170;2023-07-02T01:57:11;3.33;;;2.73;;
13408;SDS011;6775;49.574;11.170;2023-07-02T01:59:38;2.80;;;2.47;;
13408;SDS011;6775;49.574;11.170;2023-07-02T02:02:06;2.67;;;2.47;;
13408;SDS011;6775;49.574;11.170;2023-07-02T02:04:34;2.40;;;2.20;;
13408;SDS011;6775;49.574;11.170;2023-07-02T02:07:02;2.70;;;2.50;;
13408;SDS011;6775;49.574;11.170;2023-07-02T02:09:30;2.60;;;2.40;;
13408;SDS011;6775;49.574;11.170;2023-07-02T02:12:00;2.70;;;2.50;;
13408;SDS011;6775;49.574;11.170;2023-07-02T02:14:27;2.80;;;2.60;;
13408;SDS011;6775;49.574;11.170;2023-07-02T02:16:55;2.87;;;2.60;;
13408;SDS011;6775;49.574;11.170;2023-07-02T02:19:23;2.30;;;2.10;;
13408;SDS011;6775;49.574;11.170;2023-07-02T02:21:51;3.00;;;2.33;;
13408;SDS011;6775;49.574;11.170;2023-07-02T02:24:19;3.00;;;2.60;;
13408;SDS011;6775;49.574;11.170;2023-07-02T02:26:47;2.67;;;2.40;;
13408;SDS011;6775;49.574;11.170;2023-07-02T02:29:16;2.43;;;2.03;;
13408;SDS011;6775;49.574;11.170;2023-07-02T02:31:44;2.40;;;2.20;;
13408;SDS011;6775;49.574;11.170;2023-07-02T02:34:12;2.40;;;2.20;;
13408;SDS011;6775;49.574;11.170;2023-07-02T02:36:39;2.70;;;2.20;;
13408;SDS011;6775;49.574;11.170;2023-07-02T02:39:07;2.30;;;2.10;;
13408;SDS011;6775;49.574;11.170;2023-07-02T02:41:35;2.63;;;2.20;;
13408;SDS011;6775;49.574;11.170;2023-07-02T02:44:03;2.40;;;2.20;;
13408;SDS011;6775;49.574;11.170;2023-07-02T02:46:32;2.53;;;2.10;;
13408;SDS011;6775;49.574;11.170;2023-07-02T02:49:00;2.60;;;2.40;;
13408;SDS011;6775;49.574;11.170;2023-07-02T02:51:28;2.23;;;2.10;;
13408;SDS011;6775;49.574;11.170;2023-07-02T02:53:56;1.90;;;1.80;;
13408;SDS011;6775;49.574;11.170;2023-07-02T02:56:24;2.17;;;1.97;;
13408;SDS011;6775;49.574;11.170;2023-07-02T02:58:51;2.67;;;2.00;;
13408;SDS011;6775;49.574;11.170;2023-07-02T03:01:20;2.97;;;2.03;;
13408;SDS011;6775;49.574;11.170;2023-07-02T03:03:49;2.17;;;1.77;;
13408;SDS011;6775;49.574;11.170;2023-07-02T03:06:17;2.40;;;2.20;;
13408;SDS011;6775;49.574;11.170;2023-07-02T03:08:45;2.53;;;1.97;;
13408;SDS011;6775;49.574;11.170;2023-07-02T03:11:12;2.77;;;2.23;;
13408;SDS011;6775;49.574;11.170;2023-07-02T03:13:40;2.93;;;2.27;;
13408;SDS011;6775;49.574;11.170;2023-07-02T03:16:08;2.00;;;1.80;;
13408;SDS011;6775;49.574;11.170;2023-07-02T03:18:36;2.43;;;2.10;;
13408;SDS011;6775;49.574;11.170;2023-07-02T03:21:06;2.60;;;2.20;;
13408;SDS011;6775;49.574;11.170;2023-07-02T03:23:34;2.57;;;2.33;;
13408;SDS011;6775;49.574;11.170;2023-07-02T03:26:02;3.50;;;1.80;;
13408;SDS011;6775;49.574;11.170;2023-07-02T03:28:29;2.57;;;2.03;;
13408;SDS011;6775;49.574;11.170;2023-07-02T03:31:00;1.80;;;1.70;;
13408;SDS011;6775;49.574;11.170;2023-07-02T03:33:28;2.00;;;1.80;;
13408;SDS011;6775;49.574;11.170;2023-07-02T03:35:55;3.40;;;1.77;;
13408;SDS011;6775;49.574;11.170;2023-07-02T03:38:25;2.80;;;1.73;;
13408;SDS011;6775;49.574;11.170;2023-07-02T03:40:52;2.50;;;2.00;;
13408;SDS011;6775;49.574;11.170;2023-07-02T03:43:20;3.23;;;2.00;;
13408;SDS011;6775;49.574;11.170;2023-07-02T03:45:48;2.00;;;1.80;;
13408;SDS011;6775;49.574;11.170;2023-07-02T03:48:16;2.40;;;1.77;;
13408;SDS011;6775;49.574;11.170;2023-07-02T03:50:44;1.73;;;1.63;;
13408;SDS011;6775;49.574;11.170;2023-07-02T03:53:12;2.23;;;1.70;;
13408;SDS011;6775;49.574;11.170;2023-07-02T03:55:41;1.97;;;1.73;;
13408;SDS011;6775;49.574;11.170;2023-07-02T03:58:09;3.70;;;1.90;;
13408;SDS011;6775;49.574;11.170;2023-07-02T04:00:37;1.63;;;1.53;;
13408;SDS011;6775;49.574;11.170;2023-07-02T04:03:06;3.17;;;2.00;;
13408;SDS011;6775;49.574;11.170;2023-07-02T04:05:34;2.30;;;1.70;;
13408;SDS011;6775;49.574;11.170;2023-07-02T04:08:02;4.53;;;2.03;;
13408;SDS011;6775;49.574;11.170;2023-07-02T04:10:30;2.23;;;1.67;;
13408;SDS011;6775;49.574;11.170;2023-07-02T04:12:59;4.33;;;1.93;;
13408;SDS011;6775;49.574;11.170;2023-07-02T04:15:27;2.83;;;1.70;;
13408;SDS011;6775;49.574;11.170;2023-07-02T04:17:55;2.50;;;1.50;;
13408;SDS011;6775;49.574;11.170;2023-07-02T04:20:23;2.20;;;1.77;;
13408;SDS011;6775;49.574;11.170;2023-07-02T04:22:51;2.53;;;1.50;;
13408;SDS011;6775;49.574;11.170;2023-07-02T04:25:19;1.87;;;1.77;;
13408;SDS011;6775;49.574;11.170;2023-07-02T04:28:08;2.70;;;1.83;;
13408;SDS011;6775;49.574;11.170;2023-07-02T04:30:36;2.87;;;1.67;;
13408;SDS011;6775;49.574;11.170;2023-07-02T04:33:04;1.70;;;1.53;;
13408;SDS011;6775;49.574;11.170;2023-07-02T04:35:32;1.83;;;1.70;;
13408;SDS011;6775;49.574;11.170;2023-07-02T04:38:00;1.77;;;1.67;;
13408;SDS011;6775;49.574;11.170;2023-07-02T04:40:28;1.80;;;1.70;;
13408;SDS011;6775;49.574;11.170;2023-07-02T04:42:56;1.83;;;1.73;;
13408;SDS011;6775;49.574;11.170;2023-07-02T04:45:26;1.70;;;1.60;;
13408;SDS011;6775;49.574;11.170;2023-07-02T04:47:58;2.83;;;1.60;;
13408;SDS011;6775;49.574;11.170;2023-07-02T04:50:27;1.50;;;1.40;;
13408;SDS011;6775;49.574;11.170;2023-07-02T04:52:55;2.00;;;1.60;;
13408;SDS011;6775;49.574;11.170;2023-07-02T04:55:23;2.50;;;1.50;;
13408;SDS011;6775;49.574;11.170;2023-07-02T04:57:51;2.50;;;1.90;;
13408;SDS011;6775;49.574;11.170;2023-07-02T05:00:19;2.57;;;1.90;;
13408;SDS011;6775;49.574;11.170;2023-07-02T05:02:49;2.23;;;1.63;;
13408;SDS011;6775;49.574;11.170;2023-07-02T05:05:17;2.70;;;2.00;;
13408;SDS011;6775;49.574;11.170;2023-07-02T05:07:45;2.77;;;2.00;;
13408;SDS011;6775;49.574;11.170;2023-07-02T05:10:13;2.47;;;2.20;;
13408;SDS011;6775;49.574;11.170;2023-07-02T05:12:41;2.07;;;1.80;;
13408;SDS011;6775;49.574;11.170;2023-07-02T05:15:09;3.47;;;2.10;;
13408;SDS011;6775;49.574;11.170;2023-07-02T05:17:38;2.70;;;1.90;;
13408;SDS011;6775;49.574;11.170;2023-07-02T05:20:08;4.97;;;2.23;;
13408;SDS011;6775;49.574;11.170;2023-07-02T05:22:37;3.20;;;2.10;;
13408;SDS011;6775;49.574;11.170;2023-07-02T05:25:05;3.57;;;1.73;;
13408;SDS011;6775;49.574;11.170;2023-07-02T05:27:33;2.70;;;2.13;;
13408;SDS011;6775;49.574;11.170;2023-07-02T05:30:01;5.20;;;2.40;;
13408;SDS011;6775;49.574;11.170;2023-07-02T05:32:29;3.93;;;1.80;;
13408;SDS011;6775;49.574;11.170;2023-07-02T05:34:57;3.27;;;1.80;;
13408;SDS011;6775;49.574;11.170;2023-07-02T05:37:26;2.90;;;1.70;;
13408;SDS011;6775;49.574;11.170;2023-07-02T05:39:54;2.37;;;1.90;;
13408;SDS011;6775;49.574;11.170;2023-07-02T05:42:22;2.30;;;2.00;;
13408;SDS011;6775;49.574;11.170;2023-07-02T05:44:49;3.60;;;2.03;;
13408;SDS011;6775;49.574;11.170;2023-07-02T05:47:17;2.33;;;1.83;;
13408;SDS011;6775;49.574;11.170;2023-07-02T05:49:45;2.60;;;2.00;;
13408;SDS011;6775;49.574;11.170;2023-07-02T05:52:13;4.37;;;2.00;;
13408;SDS011;6775;49.574;11.170;2023-07-02T05:54:42;3.70;;;2.27;;
13408;SDS011;6775;49.574;11.170;2023-07-02T05:57:10;3.87;;;2.87;;
13408;SDS011;6775;49.574;11.170;2023-07-02T05:59:38;4.43;;;3.00;;
13408;SDS011;6775;49.574;11.170;2023-07-02T06:02:06;4.63;;;3.03;;
13408;SDS011;6775;49.574;11.170;2023-07-02T06:04:33;4.77;;;3.20;;
13408;SDS011;6775;49.574;11.170;2023-07-02T06:07:02;6.03;;;3.33;;
13408;SDS011;6775;49.574;11.170;2023-07-02T06:09:30;4.33;;;2.77;;
13408;SDS011;6775;49.574;11.170;2023-07-02T06:12:00;5.50;;;3.47;;
13408;SDS011;6775;49.574;11.170;2023-07-02T06:14:27;5.47;;;3.30;;
13408;SDS011;6775;49.574;11.170;2023-07-02T06:16:55;3.87;;;3.23;;
13408;SDS011;6775;49.574;11.170;2023-07-02T06:19:25;3.50;;;2.63;;
13408;SDS011;6775;49.574;11.170;2023-07-02T06:21:53;5.53;;;3.50;;
13408;SDS011;6775;49.574;11.170;2023-07-02T06:24:21;5.60;;;3.40;;
13408;SDS011;6775;49.574;11.170;2023-07-02T06:26:49;5.73;;;3.43;;
13408;SDS011;6775;49.574;11.170;2023-07-02T06:29:18;5.07;;;4.10;;
13408;SDS011;6775;49.574;11.170;2023-07-02T06:31:46;6.20;;;3.67;;
13408;SDS011;6775;49.574;11.170;2023-07-02T06:34:14;5.43;;;4.03;;
13408;SDS011;6775;49.574;11.170;2023-07-02T06:36:41;7.13;;;4.00;;
13408;SDS011;6775;49.574;11.170;2023-07-02T06:39:09;6.70;;;4.50;;
13408;SDS011;6775;49.574;11.170;2023-07-02T06:41:37;6.00;;;3.90;;
13408;SDS011;6775;49.574;11.170;2023-07-02T06:44:05;6.67;;;4.03;;
13408;SDS011;6775;49.574;11.170;2023-07-02T06:46:34;5.60;;;4.20;;
13408;SDS011;6775;49.574;11.170;2023-07-02T06:49:02;6.13;;;3.90;;
13408;SDS011;6775;49.574;11.170;2023-07-02T06:51:30;6.80;;;4.27;;
13408;SDS011;6775;49.574;11.170;2023-07-02T06:53:59;7.27;;;4.10;;
13408;SDS011;6775;49.574;11.170;2023-07-02T06:56:27;5.47;;;3.80;;
13408;SDS011;6775;49.574;11.170;2023-07-02T06:58:55;5.63;;;3.50;;
13408;SDS011;6775;49.574;11.170;2023-07-02T07:01:23;6.37;;;4.13;;
13408;SDS011;6775;49.574;11.170;2023-07-02T07:03:52;5.13;;;3.60;;
13408;SDS011;6775;49.574;11.170;2023-07-02T07:06:20;8.30;;;4.00;;
13408;SDS011;6775;49.574;11.170;2023-07-02T07:08:48;7.20;;;4.50;;
13408;SDS011;6775;49.574;11.170;2023-07-02T07:11:16;8.27;;;4.90;;
13408;SDS011;6775;49.574;11.170;2023-07-02T07:13:44;8.00;;;5.07;;
13408;SDS011;6775;49.574;11.170;2023-07-02T07:16:12;5.90;;;4.50;;
13408;SDS011;6775;49.574;11.170;2023-07-02T07:18:40;7.37;;;5.13;;
13408;SDS011;6775;49.574;11.170;2023-07-02T07:21:12;9.97;;;5.27;;
13408;SDS011;6775;49.574;11.170;2023-07-02T07:23:40;7.27;;;4.80;;
13408;SDS011;6775;49.574;11.170;2023-07-02T07:26:07;7.93;;;4.80;;
13408;SDS011;6775;49.574;11.170;2023-07-02T07:28:35;9.30;;;5.00;;
13408;SDS011;6775;49.574;11.170;2023-07-02T07:31:03;7.40;;;5.03;;
13408;SDS011;6775;49.574;11.170;2023-07-02T07:33:31;7.03;;;4.63;;
13408;SDS011;6775;49.574;11.170;2023-07-02T07:35:59;6.80;;;4.80;;
13408;SDS011;6775;49.574;11.170;2023-07-02T07:38:28;8.87;;;4.77;;
13408;SDS011;6775;49.574;11.170;2023-07-02T07:40:56;5.47;;;4.03;;
13408;SDS011;6775;49.574;11.170;2023-07-02T07:43:24;9.03;;;5.47;;
13408;SDS011;6775;49.574;11.170;2023-07-02T07:45:52;8.07;;;5.07;;
13408;SDS011;6775;49.574;11.170;2023-07-02T07:48:21;8.27;;;5.17;;
13408;SDS011;6775;49.574;11.170;2023-07-02T07:50:49;6.40;;;4.57;;
13408;SDS011;6775;49.574;11.170;2023-07-02T07:53:16;8.23;;;4.80;;
13408;SDS011;6775;49.574;11.170;2023-07-02T07:55:46;6.73;;;4.60;;
13408;SDS011;6775;49.574;11.170;2023-07-02T07:58:14;7.03;;;4.53;;
13408;SDS011;6775;49.574;11.170;2023-07-02T08:00:42;10.80;;;4.50;;
13408;SDS011;6775;49.574;11.170;2023-07-02T08:03:09;6.10;;;4.67;;
13408;SDS011;6775;49.574;11.170;2023-07-02T08:05:37;6.10;;;4.27;;
13408;SDS011;6775;49.574;11.170;2023-07-02T08:08:05;7.33;;;4.27;;
13408;SDS011;6775;49.574;11.170;2023-07-02T08:10:34;5.20;;;3.53;;
13408;SDS011;6775;49.574;11.170;2023-07-02T08:13:04;6.60;;;4.20;;
13408;SDS011;6775;49.574;11.170;2023-07-02T08:15:31;6.50;;;4.20;;
13408;SDS011;6775;49.574;11.170;2023-07-02T08:17:59;4.97;;;3.57;;
13408;SDS011;6775;49.574;11.170;2023-07-02T08:20:27;5.23;;;3.30;;
13408;SDS011;6775;49.574;11.170;2023-07-02T08:22:55;6.10;;;3.57;;
13408;SDS011;6775;49.574;11.170;2023-07-02T08:25:26;5.40;;;3.60;;
13408;SDS011;6775;49.574;11.170;2023-07-02T08:27:54;7.87;;;3.80;;
13408;SDS011;6775;49.574;11.170;2023-07-02T08:30:24;4.23;;;3.77;;
13408;SDS011;6775;49.574;11.170;2023-07-02T08:32:52;4.53;;;2.93;;
13408;SDS011;6775;49.574;11.170;2023-07-02T08:35:22;4.37;;;3.43;;
13408;SDS011;6775;49.574;11.170;2023-07-02T08:37:49;7.40;;;3.43;;
13408;SDS011;6775;49.574;11.170;2023-07-02T08:40:18;6.33;;;3.60;;
13408;SDS011;6775;49.574;11.170;2023-07-02T08:42:46;6.33;;;3.90;;
13408;SDS011;6775;49.574;11.170;2023-07-02T08:45:15;5.13;;;3.63;;
13408;SDS011;6775;49.574;11.170;2023-07-02T08:47:45;5.30;;;3.23;;
13408;SDS011;6775;49.574;11.170;2023-07-02T08:50:13;6.53;;;3.70;;
13408;SDS011;6775;49.574;11.170;2023-07-02T08:52:41;3.70;;;3.00;;
13408;SDS011;6775;49.574;11.170;2023-07-02T08:55:11;6.53;;;3.50;;
13408;SDS011;6775;49.574;11.170;2023-07-02T08:57:39;4.87;;;3.73;;
13408;SDS011;6775;49.574;11.170;2023-07-02T09:00:09;4.20;;;3.53;;
13408;SDS011;6775;49.574;11.170;2023-07-02T09:02:37;4.57;;;3.10;;
13408;SDS011;6775;49.574;11.170;2023-07-02T09:05:07;4.90;;;3.20;;
13408;SDS011;6775;49.574;11.170;2023-07-02T09:07:43;4.60;;;3.20;;
13408;SDS011;6775;49.574;11.170;2023-07-02T09:10:12;4.33;;;3.17;;
13408;SDS011;6775;49.574;11.170;2023-07-02T09:13:01;4.13;;;2.77;;
13408;SDS011;6775;49.574;11.170;2023-07-02T09:15:34;4.60;;;3.20;;
13408;SDS011;6775;49.574;11.170;2023-07-02T09:18:14;5.53;;;3.70;;
13408;SDS011;6775;49.574;11.170;2023-07-02T09:20:49;4.67;;;3.30;;
13408;SDS011;6775;49.574;11.170;2023-07-02T09:23:17;5.00;;;3.43;;
13408;SDS011;6775;49.574;11.170;2023-07-02T09:25:45;4.10;;;2.70;;
13408;SDS011;6775;49.574;11.170;2023-07-02T09:28:14;4.53;;;3.40;;
13408;SDS011;6775;49.574;11.170;2023-07-02T09:30:49;5.03;;;3.00;;
13408;SDS011;6775;49.574;11.170;2023-07-02T09:33:18;3.17;;;2.87;;
13408;SDS011;6775;49.574;11.170;2023-07-02T09:35:48;3.80;;;2.90;;
13408;SDS011;6775;49.574;11.170;2023-07-02T09:38:18;5.53;;;2.87;;
13408;SDS011;6775;49.574;11.170;2023-07-02T09:40:47;3.07;;;2.60;;
13408;SDS011;6775;49.574;11.170;2023-07-02T09:43:17;4.63;;;2.83;;
13408;SDS011;6775;49.574;11.170;2023-07-02T09:45:48;3.67;;;3.30;;
13408;SDS011;6775;49.574;11.170;2023-07-02T09:48:17;4.70;;;2.90;;
13408;SDS011;6775;49.574;11.170;2023-07-02T09:50:53;5.53;;;2.93;;
13408;SDS011;6775;49.574;11.170;2023-07-02T09:53:24;3.93;;;2.90;;
13408;SDS011;6775;49.574;11.170;2023-07-02T09:55:53;4.33;;;3.13;;
13408;SDS011;6775;49.574;11.170;2023-07-02T09:58:21;5.07;;;3.30;;
13408;SDS011;6775;49.574;11.170;2023-07-02T10:00:49;6.40;;;3.47;;
13408;SDS011;6775;49.574;11.170;2023-07-02T10:03:27;3.73;;;2.83;;
13408;SDS011;6775;49.574;11.170;2023-07-02T10:06:03;4.20;;;3.17;;
13408;SDS011;6775;49.574;11.170;2023-07-02T10:08:32;4.63;;;3.17;;
13408;SDS011;6775;49.574;11.170;2023-07-02T10:11:07;4.33;;;3.10;;
13408;SDS011;6775;49.574;11.170;2023-07-02T10:13:36;5.03;;;3.00;;
13408;SDS011;6775;49.574;11.170;2023-07-02T10:16:04;5.23;;;3.17;;
13408;SDS011;6775;49.574;11.170;2023-07-02T10:18:33;4.13;;;3.27;;
13408;SDS011;6775;49.574;11.170;2023-07-02T10:21:13;4.70;;;3.20;;
13408;SDS011;6775;49.574;11.170;2023-07-02T10:23:42;4.43;;;2.87;;
13408;SDS011;6775;49.574;11.170;2023-07-02T10:26:10;4.47;;;2.77;;
13408;SDS011;6775;49.574;11.170;2023-07-02T10:28:41;3.87;;;3.10;;
13408;SDS011;6775;49.574;11.170;2023-07-02T10:31:19;3.57;;;3.03;;
13408;SDS011;6775;49.574;11.170;2023-07-02T10:33:47;4.70;;;3.40;;
13408;SDS011;6775;49.574;11.170;2023-07-02T10:36:19;4.03;;;3.07;;
13408;SDS011;6775;49.574;11.170;2023-07-02T10:38:49;6.10;;;3.43;;
13408;SDS011;6775;49.574;11.170;2023-07-02T10:41:24;5.07;;;3.57;;
13408;SDS011;6775;49.574;11.170;2023-07-02T10:43:53;3.97;;;3.23;;
13408;SDS011;6775;49.574;11.170;2023-07-02T10:46:21;4.53;;;3.77;;
13408;SDS011;6775;49.574;11.170;2023-07-02T10:48:52;3.93;;;3.07;;
13408;SDS011;6775;49.574;11.170;2023-07-02T10:51:22;3.60;;;3.10;;
13408;SDS011;6775;49.574;11.170;2023-07-02T10:53:56;4.33;;;3.37;;
13408;SDS011;6775;49.574;11.170;2023-07-02T10:56:25;3.63;;;3.23;;
13408;SDS011;6775;49.574;11.170;2023-07-02T10:58:53;4.37;;;3.40;;
13408;SDS011;6775;49.574;11.170;2023-07-02T11:01:22;4.80;;;3.67;;
13408;SDS011;6775;49.574;11.170;2023-07-02T11:03:55;5.03;;;3.43;;
13408;SDS011;6775;49.574;11.170;2023-07-02T11:06:25;5.77;;;3.57;;
13408;SDS011;6775;49.574;11.170;2023-07-02T11:08:54;4.57;;;3.03;;
13408;SDS011;6775;49.574;11.170;2023-07-02T11:11:22;4.37;;;3.13;;
13408;SDS011;6775;49.574;11.170;2023-07-02T11:13:50;4.07;;;3.50;;
13408;SDS011;6775;49.574;11.170;2023-07-02T11:16:19;4.07;;;3.33;;
13408;SDS011;6775;49.574;11.170;2023-07-02T11:18:51;3.77;;;3.40;;
13408;SDS011;6775;49.574;11.170;2023-07-02T11:21:19;4.43;;;4.03;;
13408;SDS011;6775;49.574;11.170;2023-07-02T11:23:49;5.40;;;3.77;;
13408;SDS011;6775;49.574;11.170;2023-07-02T11:26:17;4.40;;;3.33;;
13408;SDS011;6775;49.574;11.170;2023-07-02T11:28:48;4.70;;;3.53;;
13408;SDS011;6775;49.574;11.170;2023-07-02T11:31:26;3.50;;;3.20;;
13408;SDS011;6775;49.574;11.170;2023-07-02T11:33:56;4.20;;;3.43;;
13408;SDS011;6775;49.574;11.170;2023-07-02T11:36:24;3.27;;;2.60;;
13408;SDS011;6775;49.574;11.170;2023-07-02T11:38:54;3.73;;;2.90;;
13408;SDS011;6775;49.574;11.170;2023-07-02T11:41:22;3.80;;;3.37;;
13408;SDS011;6775;49.574;11.170;2023-07-02T11:43:50;4.97;;;3.13;;
13408;SDS011;6775;49.574;11.170;2023-07-02T11:46:18;4.73;;;3.23;;
13408;SDS011;6775;49.574;11.170;2023-07-02T11:48:46;3.57;;;3.00;;
13408;SDS011;6775;49.574;11.170;2023-07-02T11:51:14;3.87;;;3.30;;
13408;SDS011;6775;49.574;11.170;2023-07-02T11:53:42;3.77;;;3.40;;
13408;SDS011;6775;49.574;11.170;2023-07-02T11:56:11;5.27;;;3.40;;
13408;SDS011;6775;49.574;11.170;2023-07-02T11:58:39;3.10;;;2.80;;
13408;SDS011;6775;49.574;11.170;2023-07-02T12:01:08;4.23;;;3.13;;
13408;SDS011;6775;49.574;11.170;2023-07-02T12:03:36;3.70;;;3.33;;
13408;SDS011;6775;49.574;11.170;2023-07-02T12:06:03;4.23;;;3.17;;
13408;SDS011;6775;49.574;11.170;2023-07-02T12:08:31;4.47;;;2.97;;
13408;SDS011;6775;49.574;11.170;2023-07-02T12:10:59;4.43;;;3.20;;
13408;SDS011;6775;49.574;11.170;2023-07-02T12:13:28;4.17;;;3.03;;
13408;SDS011;6775;49.574;11.170;2023-07-02T12:15:56;4.07;;;3.13;;
13408;SDS011;6775;49.574;11.170;2023-07-02T12:18:24;3.43;;;2.97;;
13408;SDS011;6775;49.574;11.170;2023-07-02T12:20:52;3.77;;;3.23;;
13408;SDS011;6775;49.574;11.170;2023-07-02T12:23:20;3.33;;;2.60;;
13408;SDS011;6775;49.574;11.170;2023-07-02T12:25:47;2.93;;;2.63;;
13408;SDS011;6775;49.574;11.170;2023-07-02T12:28:16;3.53;;;2.97;;
13408;SDS011;6775;49.574;11.170;2023-07-02T12:30:45;3.03;;;2.63;;
13408;SDS011;6775;49.574;11.170;2023-07-02T12:33:13;4.33;;;3.00;;
13408;SDS011;6775;49.574;11.170;2023-07-02T12:35:44;4.60;;;3.20;;
13408;SDS011;6775;49.574;11.170;2023-07-02T12:38:12;3.53;;;3.23;;
13408;SDS011;6775;49.574;11.170;2023-07-02T12:40:40;3.37;;;3.07;;
13408;SDS011;6775;49.574;11.170;2023-07-02T12:43:08;3.50;;;2.93;;
13408;SDS011;6775;49.574;11.170;2023-07-02T12:45:36;3.67;;;3.23;;
13408;SDS011;6775;49.574;11.170;2023-07-02T12:48:05;5.17;;;3.93;;
13408;SDS011;6775;49.574;11.170;2023-07-02T12:50:33;5.33;;;4.07;;
13408;SDS011;6775;49.574;11.170;2023-07-02T12:53:01;7.30;;;4.33;;
13408;SDS011;6775;49.574;11.170;2023-07-02T12:55:29;6.57;;;4.37;;
13408;SDS011;6775;49.574;11.170;2023-07-02T12:57:56;7.10;;;4.70;;
13408;SDS011;6775;49.574;11.170;2023-07-02T13:00:24;5.90;;;4.43;;
13408;SDS011;6775;49.574;11.170;2023-07-02T13:02:52;9.43;;;5.43;;
13408;SDS011;6775;49.574;11.170;2023-07-02T13:05:31;8.17;;;5.60;;
13408;SDS011;6775;49.574;11.170;2023-07-02T13:07:59;7.63;;;5.43;;
13408;SDS011;6775;49.574;11.170;2023-07-02T13:10:28;6.50;;;5.03;;
13408;SDS011;6775;49.574;11.170;2023-07-02T13:12:56;6.37;;;5.30;;
13408;SDS011;6775;49.574;11.170;2023-07-02T13:15:32;13.73;;;6.80;;
13408;SDS011;6775;49.574;11.170;2023-07-02T13:18:00;7.53;;;5.87;;
13408;SDS011;6775;49.574;11.170;2023-07-02T13:20:29;10.57;;;6.10;;
13408;SDS011;6775;49.574;11.170;2023-07-02T13:22:58;9.07;;;5.90;;
13408;SDS011;6775;49.574;11.170;2023-07-02T13:25:26;8.80;;;5.20;;
13408;SDS011;6775;49.574;11.170;2023-07-02T13:27:54;9.87;;;6.57;;
13408;SDS011;6775;49.574;11.170;2023-07-02T13:30:22;9.37;;;6.00;;
13408;SDS011;6775;49.574;11.170;2023-07-02T13:32:50;12.43;;;7.40;;
13408;SDS011;6775;49.574;11.170;2023-07-02T13:35:18;11.70;;;7.03;;
13408;SDS011;6775;49.574;11.170;2023-07-02T13:37:48;10.47;;;6.73;;
13408;SDS011;6775;49.574;11.170;2023-07-02T13:40:18;14.30;;;7.20;;
13408;SDS011;6775;49.574;11.170;2023-07-02T13:42:46;9.30;;;6.83;;
13408;SDS011;6775;49.574;11.170;2023-07-02T13:45:14;9.17;;;6.77;;
13408;SDS011;6775;49.574;11.170;2023-07-02T13:47:41;8.47;;;6.50;;
13408;SDS011;6775;49.574;11.170;2023-07-02T13:50:09;9.67;;;6.10;;
13408;SDS011;6775;49.574;11.170;2023-07-02T13:52:38;10.73;;;6.07;;
13408;SDS011;6775;49.574;11.170;2023-07-02T13:55:06;7.30;;;5.47;;
13408;SDS011;6775;49.574;11.170;2023-07-02T13:57:35;9.80;;;6.83;;
13408;SDS011;6775;49.574;11.170;2023-07-02T14:00:05;10.47;;;7.47;;
13408;SDS011;6775;49.574;11.170;2023-07-02T14:02:34;10.23;;;7.70;;
13408;SDS011;6775;49.574;11.170;2023-07-02T14:05:02;9.53;;;7.10;;
13408;SDS011;6775;49.574;11.170;2023-07-02T14:07:30;9.67;;;6.60;;
13408;SDS011;6775;49.574;11.170;2023-07-02T14:09:58;11.87;;;7.83;;
13408;SDS011;6775;49.574;11.170;2023-07-02T14:12:26;10.20;;;7.27;;
13408;SDS011;6775;49.574;11.170;2023-07-02T14:14:53;9.47;;;6.87;;
13408;SDS011;6775;49.574;11.170;2023-07-02T14:17:23;11.27;;;7.20;;
13408;SDS011;6775;49.574;11.170;2023-07-02T14:19:52;10.00;;;7.43;;
13408;SDS011;6775;49.574;11.170;2023-07-02T14:22:20;13.07;;;7.77;;
13408;SDS011;6775;49.574;11.170;2023-07-02T14:24:48;10.53;;;6.83;;
13408;SDS011;6775;49.574;11.170;2023-07-02T14:27:16;11.27;;;7.30;;
13408;SDS011;6775;49.574;11.170;2023-07-02T14:29:44;11.33;;;7.57;;
13408;SDS011;6775;49.574;11.170;2023-07-02T14:32:13;10.77;;;6.87;;
13408;SDS011;6775;49.574;11.170;2023-07-02T14:34:42;9.60;;;7.00;;
13408;SDS011;6775;49.574;11.170;2023-07-02T14:37:10;10.63;;;7.87;;
13408;SDS011;6775;49.574;11.170;2023-07-02T14:39:38;9.17;;;6.50;;
13408;SDS011;6775;49.574;11.170;2023-07-02T14:42:13;9.93;;;6.90;;
13408;SDS011;6775;49.574;11.170;2023-07-02T14:44:41;8.53;;;6.40;;
13408;SDS011;6775;49.574;11.170;2023-07-02T14:47:08;9.70;;;7.20;;
13408;SDS011;6775;49.574;11.170;2023-07-02T14:49:36;11.30;;;8.30;;
13408;SDS011;6775;49.574;11.170;2023-07-02T14:52:06;10.13;;;7.80;;
13408;SDS011;6775;49.574;11.170;2023-07-02T14:54:34;12.07;;;8.33;;
13408;SDS011;6775;49.574;11.170;2023-07-02T14:57:02;12.33;;;8.70;;